BWA755 TLPL-TAPA
Flight info
| Callsign | BWA755 |
|---|---|
| Flight time | 0h 41m |
| Altitude | 23000 |
| Route | BNE DCT KISES A324 FOF A312 DOM/N0401F220 A312 ANU |
| Aircraft | B738/M-SDE2E3FGHIRWXY/LB1 |
Departure
| Time | 2026-05-07 16:42 |
|---|---|
| Airport | Hewanorra International Airport (TLPL) |
Arrival
| Time | 2026-05-07 17:24 |
|---|---|
| Airport | V. C. Bird International Airport (TAPA) |
| Time | Latitude | Longitude | Altitude | Speed | Heading |
|---|---|---|---|---|---|
| 2026-05-07 16:15 | 13.73594 | -60.95073 | 35 ft | 0 kts | 359° |
| 2026-05-07 16:36 | 13.73584 | -60.95073 | 35 ft | 2 kts | 360° |
| 2026-05-07 16:36 | 13.73567 | -60.95073 | 35 ft | 2 kts | 0° |
| 2026-05-07 16:37 | 13.73551 | -60.95074 | 34 ft | 2 kts | 0° |
| 2026-05-07 16:37 | 13.73535 | -60.95072 | 31 ft | 2 kts | 329° |
| 2026-05-07 16:37 | 13.73527 | -60.95063 | 34 ft | 1 kts | 274° |
| 2026-05-07 16:37 | 13.73526 | -60.95059 | 34 ft | 0 kts | 271° |
| 2026-05-07 16:38 | 13.73526 | -60.95064 | 34 ft | 3 kts | 267° |
| 2026-05-07 16:38 | 13.73520 | -60.95119 | 34 ft | 13 kts | 256° |
| 2026-05-07 16:39 | 13.73463 | -60.95156 | 32 ft | 0 kts | 185° |
| 2026-05-07 16:39 | 13.73462 | -60.95156 | 32 ft | 1 kts | 184° |
| 2026-05-07 16:39 | 13.73422 | -60.95157 | 30 ft | 13 kts | 178° |
| 2026-05-07 16:40 | 13.73344 | -60.95235 | 27 ft | 25 kts | 271° |
| 2026-05-07 16:40 | 13.73339 | -60.95452 | 27 ft | 37 kts | 268° |
| 2026-05-07 16:40 | 13.73339 | -60.95762 | 29 ft | 48 kts | 270° |
| 2026-05-07 16:40 | 13.73342 | -60.96097 | 27 ft | 43 kts | 270° |
| 2026-05-07 16:41 | 13.73339 | -60.96385 | 26 ft | 33 kts | 269° |
| 2026-05-07 16:41 | 13.73334 | -60.96518 | 25 ft | 6 kts | 324° |
| 2026-05-07 16:41 | 13.73342 | -60.96494 | 31 ft | 9 kts | 89° |
| 2026-05-07 16:41 | 13.73342 | -60.96440 | 32 ft | 0 kts | 89° |
| 2026-05-07 16:42 | 13.73343 | -60.96307 | 27 ft | 52 kts | 90° |
| 2026-05-07 16:42 | 13.73344 | -60.95672 | 28 ft | 123 kts | 89° |
| 2026-05-07 16:42 | 13.73350 | -60.94635 | 380 ft | 152 kts | 88° |
| 2026-05-07 16:42 | 13.73388 | -60.93541 | 1290 ft | 152 kts | 82° |
| 2026-05-07 16:43 | 13.73923 | -60.92574 | 1940 ft | 174 kts | 37° |
| 2026-05-07 16:43 | 13.75212 | -60.92255 | 2285 ft | 215 kts | 355° |
| 2026-05-07 16:43 | 13.76625 | -60.93022 | 2615 ft | 245 kts | 318° |
| 2026-05-07 16:43 | 13.77894 | -60.94257 | 3119 ft | 263 kts | 324° |
| 2026-05-07 16:44 | 13.79566 | -60.95236 | 3808 ft | 266 kts | 351° |
| 2026-05-07 16:44 | 13.81380 | -60.95432 | 4816 ft | 264 kts | 358° |
| 2026-05-07 16:44 | 13.83243 | -60.95577 | 5689 ft | 271 kts | 356° |
| 2026-05-07 16:44 | 13.85129 | -60.95749 | 6632 ft | 273 kts | 355° |
| 2026-05-07 16:45 | 13.87003 | -60.95945 | 7535 ft | 275 kts | 354° |
| 2026-05-07 16:45 | 13.88925 | -60.96164 | 8358 ft | 281 kts | 354° |
| 2026-05-07 16:45 | 13.90885 | -60.96402 | 9209 ft | 284 kts | 354° |
| 2026-05-07 16:45 | 13.92860 | -60.96652 | 10113 ft | 285 kts | 354° |
| 2026-05-07 16:46 | 13.94875 | -60.96912 | 10611 ft | 301 kts | 354° |
| 2026-05-07 16:46 | 13.97029 | -60.97195 | 10802 ft | 327 kts | 354° |
| 2026-05-07 16:46 | 13.99371 | -60.97505 | 11032 ft | 347 kts | 354° |
| 2026-05-07 16:46 | 14.01813 | -60.97832 | 11519 ft | 357 kts | 353° |
| 2026-05-07 16:47 | 14.04264 | -60.98163 | 12235 ft | 359 kts | 354° |
| 2026-05-07 16:47 | 14.06744 | -60.98498 | 12995 ft | 360 kts | 354° |
| 2026-05-07 16:47 | 14.09250 | -60.98837 | 13572 ft | 367 kts | 353° |
| 2026-05-07 16:47 | 14.11801 | -60.99181 | 14155 ft | 371 kts | 353° |
| 2026-05-07 16:48 | 14.14365 | -60.99528 | 14828 ft | 371 kts | 353° |
| 2026-05-07 16:48 | 14.16949 | -60.99876 | 15370 ft | 376 kts | 353° |
| 2026-05-07 16:48 | 14.19538 | -61.00191 | 15966 ft | 378 kts | 355° |
| 2026-05-07 16:48 | 14.22176 | -61.00380 | 16569 ft | 381 kts | 357° |
| 2026-05-07 16:49 | 14.24856 | -61.00512 | 17102 ft | 386 kts | 358° |
| 2026-05-07 16:49 | 14.27512 | -61.00630 | 17708 ft | 388 kts | 358° |
| 2026-05-07 16:49 | 14.30226 | -61.00754 | 18229 ft | 392 kts | 358° |
| 2026-05-07 16:49 | 14.32962 | -61.00888 | 18750 ft | 394 kts | 357° |
| 2026-05-07 16:50 | 14.35719 | -61.01031 | 19228 ft | 398 kts | 357° |
| 2026-05-07 16:50 | 14.38492 | -61.01179 | 19710 ft | 400 kts | 356° |
| 2026-05-07 16:50 | 14.41281 | -61.01330 | 20029 ft | 403 kts | 356° |
| 2026-05-07 16:50 | 14.44114 | -61.01485 | 20038 ft | 410 kts | 356° |
| 2026-05-07 16:51 | 14.45999 | -61.01588 | 20044 ft | 410 kts | 356° |
| 2026-05-07 16:51 | 14.48868 | -61.01744 | 20063 ft | 417 kts | 356° |
| 2026-05-07 16:51 | 14.52768 | -61.01956 | 20313 ft | 428 kts | 356° |
| 2026-05-07 16:51 | 14.55768 | -61.02120 | 20557 ft | 434 kts | 356° |
| 2026-05-07 16:52 | 14.57815 | -61.02237 | 20766 ft | 436 kts | 354° |
| 2026-05-07 16:52 | 14.60804 | -61.02679 | 21280 ft | 433 kts | 345° |
| 2026-05-07 16:52 | 14.63684 | -61.03473 | 21684 ft | 434 kts | 343° |
| 2026-05-07 16:52 | 14.66608 | -61.04329 | 22118 ft | 435 kts | 342° |
| 2026-05-07 16:53 | 14.69519 | -61.05189 | 22621 ft | 435 kts | 343° |
| 2026-05-07 16:53 | 14.72430 | -61.06042 | 23039 ft | 434 kts | 343° |
| 2026-05-07 16:53 | 14.75355 | -61.06890 | 23035 ft | 436 kts | 343° |
| 2026-05-07 16:53 | 14.78239 | -61.07718 | 23040 ft | 432 kts | 343° |
| 2026-05-07 16:54 | 14.81135 | -61.08543 | 23042 ft | 431 kts | 343° |
| 2026-05-07 16:54 | 14.84037 | -61.09367 | 23054 ft | 432 kts | 343° |
| 2026-05-07 16:54 | 14.86953 | -61.10195 | 23057 ft | 434 kts | 343° |
| 2026-05-07 16:54 | 14.89831 | -61.11011 | 23051 ft | 434 kts | 343° |
| 2026-05-07 16:55 | 14.92764 | -61.11843 | 23049 ft | 435 kts | 343° |
| 2026-05-07 16:55 | 14.95689 | -61.12673 | 23049 ft | 434 kts | 343° |
| 2026-05-07 16:55 | 14.98572 | -61.13492 | 23048 ft | 434 kts | 343° |
| 2026-05-07 16:55 | 15.01496 | -61.14323 | 23048 ft | 433 kts | 343° |
| 2026-05-07 16:56 | 15.04404 | -61.15149 | 23050 ft | 432 kts | 343° |
| 2026-05-07 16:56 | 15.07299 | -61.15972 | 23054 ft | 430 kts | 343° |
| 2026-05-07 16:56 | 15.13033 | -61.17603 | 23046 ft | 426 kts | 343° |
| 2026-05-07 16:57 | 15.15900 | -61.18419 | 23044 ft | 425 kts | 343° |
| 2026-05-07 16:57 | 15.18725 | -61.19223 | 23048 ft | 425 kts | 343° |
| 2026-05-07 16:57 | 15.21584 | -61.20038 | 23052 ft | 424 kts | 343° |
| 2026-05-07 16:57 | 15.24436 | -61.20850 | 23047 ft | 425 kts | 343° |
| 2026-05-07 16:58 | 15.27291 | -61.21663 | 23054 ft | 426 kts | 343° |
| 2026-05-07 16:58 | 15.30149 | -61.22478 | 23053 ft | 426 kts | 343° |
| 2026-05-07 16:58 | 15.32985 | -61.23287 | 23046 ft | 427 kts | 343° |
| 2026-05-07 16:58 | 15.35866 | -61.24108 | 23053 ft | 427 kts | 343° |
| 2026-05-07 16:59 | 15.38734 | -61.24926 | 23054 ft | 428 kts | 343° |
| 2026-05-07 16:59 | 15.41608 | -61.25746 | 23053 ft | 428 kts | 343° |
| 2026-05-07 16:59 | 15.44486 | -61.26568 | 23051 ft | 428 kts | 343° |
| 2026-05-07 16:59 | 15.47326 | -61.27379 | 23102 ft | 428 kts | 343° |
| 2026-05-07 17:00 | 15.50209 | -61.28202 | 23097 ft | 428 kts | 343° |
| 2026-05-07 17:00 | 15.53083 | -61.29023 | 23097 ft | 428 kts | 343° |
| 2026-05-07 17:00 | 15.55957 | -61.29849 | 23106 ft | 427 kts | 343° |
| 2026-05-07 17:00 | 15.58798 | -61.30756 | 23099 ft | 427 kts | 341° |
| 2026-05-07 17:01 | 15.61585 | -61.31713 | 23105 ft | 426 kts | 340° |
| 2026-05-07 17:01 | 15.64395 | -61.32698 | 23101 ft | 425 kts | 340° |
| 2026-05-07 17:01 | 15.67201 | -61.33682 | 23099 ft | 425 kts | 340° |
| 2026-05-07 17:01 | 15.70022 | -61.34664 | 23095 ft | 425 kts | 340° |
| 2026-05-07 17:02 | 15.72829 | -61.35633 | 23087 ft | 424 kts | 340° |
| 2026-05-07 17:02 | 15.75595 | -61.36582 | 23079 ft | 423 kts | 340° |
| 2026-05-07 17:02 | 15.78390 | -61.37538 | 23071 ft | 422 kts | 341° |
| 2026-05-07 17:02 | 15.81133 | -61.38473 | 23049 ft | 406 kts | 340° |
| 2026-05-07 17:03 | 15.83762 | -61.39369 | 23048 ft | 391 kts | 340° |
| 2026-05-07 17:03 | 15.86339 | -61.40249 | 23054 ft | 389 kts | 340° |
| 2026-05-07 17:03 | 15.88917 | -61.41130 | 23062 ft | 389 kts | 340° |
| 2026-05-07 17:03 | 15.91501 | -61.42013 | 23062 ft | 390 kts | 340° |
| 2026-05-07 17:04 | 15.94055 | -61.42887 | 23060 ft | 390 kts | 340° |
| 2026-05-07 17:04 | 15.96639 | -61.43771 | 23061 ft | 390 kts | 340° |
| 2026-05-07 17:04 | 15.99223 | -61.44654 | 23062 ft | 390 kts | 340° |
| 2026-05-07 17:04 | 16.01805 | -61.45537 | 23017 ft | 386 kts | 340° |
| 2026-05-07 17:05 | 16.04326 | -61.46400 | 22729 ft | 378 kts | 340° |
| 2026-05-07 17:05 | 16.06813 | -61.47251 | 22239 ft | 376 kts | 340° |
| 2026-05-07 17:05 | 16.09313 | -61.48107 | 21503 ft | 380 kts | 341° |
| 2026-05-07 17:05 | 16.11799 | -61.48959 | 21010 ft | 378 kts | 341° |
| 2026-05-07 17:06 | 16.14285 | -61.49811 | 20597 ft | 373 kts | 341° |
| 2026-05-07 17:06 | 16.16749 | -61.50655 | 20114 ft | 371 kts | 341° |
| 2026-05-07 17:06 | 16.19185 | -61.51490 | 19963 ft | 361 kts | 341° |
| 2026-05-07 17:06 | 16.21527 | -61.52293 | 19884 ft | 348 kts | 341° |
| 2026-05-07 17:07 | 16.23773 | -61.53063 | 19812 ft | 336 kts | 341° |
| 2026-05-07 17:07 | 16.25963 | -61.53814 | 19720 ft | 324 kts | 341° |
| 2026-05-07 17:07 | 16.28057 | -61.54504 | 19649 ft | 314 kts | 343° |
| 2026-05-07 17:07 | 16.30186 | -61.55151 | 18902 ft | 327 kts | 344° |
| 2026-05-07 17:08 | 16.32429 | -61.55816 | 17764 ft | 342 kts | 344° |
| 2026-05-07 17:08 | 16.34753 | -61.56501 | 16714 ft | 349 kts | 344° |
| 2026-05-07 17:08 | 16.37100 | -61.57196 | 15885 ft | 350 kts | 344° |
| 2026-05-07 17:08 | 16.39436 | -61.57893 | 15138 ft | 348 kts | 344° |
| 2026-05-07 17:09 | 16.41742 | -61.58583 | 14559 ft | 341 kts | 344° |
| 2026-05-07 17:09 | 16.44015 | -61.59266 | 13876 ft | 338 kts | 344° |
| 2026-05-07 17:09 | 16.46252 | -61.59938 | 13057 ft | 338 kts | 344° |
| 2026-05-07 17:09 | 16.48499 | -61.60614 | 12399 ft | 333 kts | 344° |
| 2026-05-07 17:10 | 16.50708 | -61.61280 | 11735 ft | 329 kts | 344° |
| 2026-05-07 17:10 | 16.52917 | -61.61945 | 10958 ft | 330 kts | 344° |
| 2026-05-07 17:10 | 16.55091 | -61.62600 | 10677 ft | 314 kts | 343° |
| 2026-05-07 17:10 | 16.57116 | -61.63210 | 10483 ft | 299 kts | 343° |
| 2026-05-07 17:11 | 16.59084 | -61.63804 | 10362 ft | 290 kts | 343° |
| 2026-05-07 17:11 | 16.60988 | -61.64378 | 10324 ft | 276 kts | 343° |
| 2026-05-07 17:11 | 16.62782 | -61.64919 | 10247 ft | 260 kts | 343° |
| 2026-05-07 17:11 | 16.64477 | -61.65430 | 10146 ft | 246 kts | 343° |
| 2026-05-07 17:12 | 16.66051 | -61.65905 | 10064 ft | 231 kts | 343° |
| 2026-05-07 17:12 | 16.67544 | -61.66355 | 9983 ft | 215 kts | 343° |
| 2026-05-07 17:12 | 16.68972 | -61.66786 | 9528 ft | 221 kts | 343° |
| 2026-05-07 17:12 | 16.70504 | -61.67254 | 9133 ft | 240 kts | 342° |
| 2026-05-07 17:13 | 16.71986 | -61.68139 | 8851 ft | 258 kts | 321° |
| 2026-05-07 17:13 | 16.73353 | -61.69361 | 8544 ft | 258 kts | 320° |
| 2026-05-07 17:13 | 16.74700 | -61.70593 | 8268 ft | 257 kts | 320° |
| 2026-05-07 17:13 | 16.76052 | -61.71827 | 8006 ft | 259 kts | 320° |
| 2026-05-07 17:14 | 16.77414 | -61.73063 | 7736 ft | 259 kts | 321° |
| 2026-05-07 17:14 | 16.78779 | -61.74295 | 7465 ft | 259 kts | 320° |
| 2026-05-07 17:14 | 16.80150 | -61.75527 | 7187 ft | 260 kts | 321° |
| 2026-05-07 17:14 | 16.81521 | -61.76756 | 6916 ft | 258 kts | 321° |
| 2026-05-07 17:15 | 16.82840 | -61.77937 | 6648 ft | 247 kts | 321° |
| 2026-05-07 17:15 | 16.84124 | -61.79087 | 6393 ft | 238 kts | 321° |
| 2026-05-07 17:15 | 16.85361 | -61.80194 | 6128 ft | 230 kts | 323° |
| 2026-05-07 17:15 | 16.86557 | -61.81263 | 5878 ft | 221 kts | 322° |
| 2026-05-07 17:16 | 16.87706 | -61.82289 | 5686 ft | 215 kts | 322° |
| 2026-05-07 17:16 | 16.88838 | -61.83300 | 5483 ft | 214 kts | 322° |
| 2026-05-07 17:16 | 16.89959 | -61.84299 | 5247 ft | 214 kts | 322° |
| 2026-05-07 17:16 | 16.91094 | -61.85312 | 5044 ft | 214 kts | 322° |
| 2026-05-07 17:17 | 16.92233 | -61.86329 | 4822 ft | 216 kts | 323° |
| 2026-05-07 17:17 | 16.93363 | -61.87338 | 4601 ft | 215 kts | 322° |
| 2026-05-07 17:17 | 16.94487 | -61.88344 | 4484 ft | 208 kts | 323° |
| 2026-05-07 17:17 | 16.95593 | -61.89331 | 4386 ft | 210 kts | 323° |
| 2026-05-07 17:18 | 16.96712 | -61.90330 | 4278 ft | 213 kts | 323° |
| 2026-05-07 17:18 | 16.97831 | -61.91329 | 4187 ft | 214 kts | 322° |
| 2026-05-07 17:18 | 16.98964 | -61.92342 | 4084 ft | 214 kts | 322° |
| 2026-05-07 17:18 | 17.00103 | -61.93361 | 3891 ft | 218 kts | 322° |
| 2026-05-07 17:19 | 17.01267 | -61.94398 | 3692 ft | 220 kts | 323° |
| 2026-05-07 17:19 | 17.02612 | -61.95070 | 3404 ft | 212 kts | 358° |
| 2026-05-07 17:19 | 17.03978 | -61.94778 | 3198 ft | 195 kts | 31° |
| 2026-05-07 17:19 | 17.04930 | -61.93914 | 2961 ft | 176 kts | 57° |
| 2026-05-07 17:20 | 17.05579 | -61.92886 | 2751 ft | 163 kts | 59° |
| 2026-05-07 17:20 | 17.06168 | -61.91931 | 2611 ft | 149 kts | 60° |
| 2026-05-07 17:20 | 17.06715 | -61.91020 | 2473 ft | 148 kts | 59° |
| 2026-05-07 17:20 | 17.07257 | -61.90115 | 2285 ft | 148 kts | 59° |
| 2026-05-07 17:21 | 17.07792 | -61.89213 | 2090 ft | 148 kts | 61° |
| 2026-05-07 17:21 | 17.08328 | -61.88304 | 1903 ft | 145 kts | 60° |
| 2026-05-07 17:21 | 17.08855 | -61.87412 | 1696 ft | 143 kts | 60° |
| 2026-05-07 17:21 | 17.09386 | -61.86518 | 1528 ft | 147 kts | 60° |
| 2026-05-07 17:22 | 17.09927 | -61.85603 | 1324 ft | 147 kts | 59° |
| 2026-05-07 17:22 | 17.10449 | -61.84717 | 1122 ft | 144 kts | 62° |
| 2026-05-07 17:22 | 17.10981 | -61.83824 | 1021 ft | 137 kts | 58° |
| 2026-05-07 17:22 | 17.11480 | -61.83013 | 747 ft | 142 kts | 59° |
| 2026-05-07 17:23 | 17.12010 | -61.82118 | 591 ft | 146 kts | 60° |
| 2026-05-07 17:23 | 17.12520 | -61.81215 | 327 ft | 137 kts | 59° |
| 2026-05-07 17:23 | 17.12993 | -61.80424 | 119 ft | 119 kts | 61° |
| 2026-05-07 17:23 | 17.13386 | -61.79751 | 50 ft | 89 kts | 58° |
| 2026-05-07 17:24 | 17.13628 | -61.79344 | 51 ft | 55 kts | 58° |
| 2026-05-07 17:24 | 17.13755 | -61.79132 | 45 ft | 21 kts | 57° |
| 2026-05-07 17:24 | 17.13864 | -61.79122 | 43 ft | 10 kts | 342° |
| 2026-05-07 17:24 | 17.13868 | -61.79124 | 43 ft | 0 kts | 343° |
| 2026-05-07 17:25 | 17.13872 | -61.79125 | 43 ft | 2 kts | 343° |
| 2026-05-07 17:25 | 17.13909 | -61.79126 | 41 ft | 9 kts | 3° |
| 2026-05-07 17:25 | 17.13966 | -61.79105 | 40 ft | 9 kts | 56° |
| 2026-05-07 17:26 | 17.14003 | -61.79032 | 38 ft | 13 kts | 62° |
| 2026-05-07 17:26 | 17.14042 | -61.78968 | 39 ft | 0 kts | 56° |
| 2026-05-07 17:26 | 17.14050 | -61.78959 | 38 ft | 4 kts | 45° |
| 2026-05-07 17:27 | 17.14092 | -61.78952 | 39 ft | 9 kts | 343° |
| 2026-05-07 17:27 | 17.14135 | -61.78977 | 39 ft | 0 kts | 326° |
| 2026-05-07 17:27 | 17.14140 | -61.78980 | 39 ft | 0 kts | 326° |